Time;durP1;ratioP1;P1;durP2;ratioP2;P2;SDS_P1;SDS_P2;PMS_P1;PMS_P2;Temp;Humidity;BMP_temperature;BMP_pressure;BME280_temperature;BME280_humidity;BME280_pressure;Samples;Min_cycle;Max_cycle;Signal;HPM_P1;HPM_P2
2021/09/02 00:01:12;;;;;;;7.60;4.30;;;;;;;12.72;68.42;100577.20;112327;1201;137103;-84
2021/09/02 00:04:02;;;;;;;8.40;4.60;;;;;;;12.74;68.50;100576.10;112454;1208;107292;-85
2021/09/02 00:06:50;;;;;;;;;;;;;;;12.75;68.46;100577.11;112347;1202;137509;-84
2021/09/02 00:09:37;;;;;;;10.00;5.20;;;;;;;12.73;68.32;100582.07;112441;1201;106441;-84
2021/09/02 00:12:23;;;;;;;9.40;4.50;;;;;;;12.69;68.55;100581.15;112292;1207;137563;-82
2021/09/02 00:15:11;;;;;;;7.10;4.40;;;;;;;12.64;68.58;100581.16;112364;1202;94825;-84
2021/09/02 00:17:59;;;;;;;;;;;;;;;12.60;68.65;100577.63;112259;1208;137147;-84
2021/09/02 00:20:46;;;;;;;7.80;5.00;;;;;;;12.58;68.81;100579.46;112411;1206;104824;-87
2021/09/02 00:23:33;;;;;;;10.10;5.00;;;;;;;12.54;68.84;100581.30;112445;1199;137121;-83
2021/09/02 00:26:20;;;;;;;8.50;5.10;;;;;;;12.50;69.08;100588.46;112441;1200;94965;-84
2021/09/02 00:29:10;;;;;;;8.70;4.40;;;;;;;12.44;69.14;100591.46;112460;1206;94873;-86
2021/09/02 00:31:56;;;;;;;11.60;5.10;;;;;;;12.41;69.15;100594.00;112418;1201;108558;-84
2021/09/02 00:34:45;;;;;;;8.50;5.00;;;;;;;12.36;69.32;100591.88;112321;1208;104900;-84
2021/09/02 00:37:32;;;;;;;9.50;4.90;;;;;;;12.32;69.46;100592.36;112175;1199;136919;-84
2021/09/02 00:40:24;;;;;;;7.40;4.30;;;;;;;12.29;69.51;100589.71;112292;1200;94904;-83
2021/09/02 00:43:13;;;;;;;8.70;4.40;;;;;;;12.27;69.68;100589.23;112156;1200;137534;-83
2021/09/02 00:46:05;;;;;;;8.10;4.90;;;;;;;12.26;69.81;100593.98;112471;1207;107653;-85
2021/09/02 00:48:53;;;;;;;8.30;4.90;;;;;;;12.25;69.81;100596.30;112171;1201;137302;-87
2021/09/02 00:51:40;;;;;;;9.70;5.60;;;;;;;12.22;69.89;100590.98;112365;1199;106164;-89
2021/09/02 00:54:29;;;;;;;9.40;4.70;;;;;;;12.17;70.13;100587.64;112311;1208;137135;-88
2021/09/02 00:57:18;;;;;;;10.00;5.00;;;;;;;12.15;70.29;100583.90;112382;1202;95005;-83
2021/09/02 01:00:13;;;;;;;9.60;5.10;;;;;;;12.10;70.22;100583.02;112261;1202;137659;-84
2021/09/02 01:02:59;;;;;;;8.90;4.80;;;;;;;12.03;70.52;100580.98;112477;1199;106147;-83
2021/09/02 01:05:55;;;;;;;11.10;5.60;;;;;;;11.96;70.63;100575.79;112314;1202;137809;-85
2021/09/02 01:08:46;;;;;;;7.80;4.60;;;;;;;11.89;70.90;100590.68;112415;1201;97293;-85
2021/09/02 01:11:32;;;;;;;8.50;4.60;;;;;;;11.84;71.03;100593.08;112409;1203;94938;-84
2021/09/02 01:14:20;;;;;;;10.20;4.80;;;;;;;11.82;71.29;100595.41;112306;1202;137059;-84
2021/09/02 01:17:07;;;;;;;8.30;5.30;;;;;;;11.82;71.38;100596.09;112546;1200;104905;-84
2021/09/02 01:19:54;;;;;;;7.90;4.80;;;;;;;11.80;71.55;100597.20;112367;1208;137136;-84
2021/09/02 01:22:52;;;;;;;9.90;5.20;;;;;;;11.80;71.67;100597.74;112447;1203;94910;-88
2021/09/02 01:25:45;;;;;;;11.70;5.20;;;;;;;11.79;71.61;100600.04;112354;1200;136524;-88
2021/09/02 01:28:35;;;;;;;11.40;5.40;;;;;;;11.77;71.78;100605.46;112467;1199;108281;-83
2021/09/02 01:31:22;;;;;;;10.30;5.90;;;;;;;11.74;71.96;100604.01;112275;1203;137316;-83
2021/09/02 01:34:09;;;;;;;8.50;4.70;;;;;;;11.72;72.02;100607.55;112420;1199;106143;-85
2021/09/02 01:36:56;;;;;;;10.30;5.40;;;;;;;11.71;72.20;100605.85;112275;1199;137810;-84
2021/09/02 01:39:43;;;;;;;10.40;5.80;;;;;;;11.70;72.15;100607.44;112498;1207;94696;-86
2021/09/02 01:42:30;;;;;;;8.10;5.20;;;;;;;11.67;72.32;100601.95;112374;1198;137202;-86
2021/09/02 01:45:19;;;;;;;12.40;5.30;;;;;;;11.63;72.40;100602.77;112389;1203;107153;-83
2021/09/02 01:48:07;;;;;;;8.50;5.20;;;;;;;11.59;72.50;100605.52;112299;1203;136985;-86
2021/09/02 01:50:54;;;;;;;8.90;5.30;;;;;;;11.57;72.68;100603.50;112361;1202;94885;-84
2021/09/02 01:53:41;;;;;;;11.30;5.40;;;;;;;11.55;72.82;100604.06;112476;1200;93928;-84
2021/09/02 01:56:28;;;;;;;8.80;5.40;;;;;;;11.51;72.89;100603.84;112387;1200;137259;-83
2021/09/02 01:59:14;;;;;;;9.80;4.80;;;;;;;11.48;72.96;100604.26;112377;1200;104999;-86
2021/09/02 02:02:04;;;;;;;8.20;5.00;;;;;;;11.46;73.07;100604.31;112295;1208;136665;-83
2021/09/02 02:04:51;;;;;;;9.70;5.40;;;;;;;11.42;73.09;100603.58;112422;1201;94821;-87
2021/09/02 02:07:39;;;;;;;10.10;5.40;;;;;;;11.40;73.39;100604.00;112261;1200;137411;-84
2021/09/02 02:10:27;;;;;;;7.20;4.80;;;;;;;11.38;73.41;100608.92;112403;1207;108348;-84
2021/09/02 02:13:14;;;;;;;;;;;;;;;11.36;73.57;100612.83;112309;1201;137578;-83
2021/09/02 02:16:01;;;;;;;9.80;5.80;;;;;;;11.32;73.57;100610.67;112338;1202;107522;-85
2021/09/02 02:18:49;;;;;;;10.20;5.40;;;;;;;11.29;73.64;100616.14;112339;1200;137032;-83
2021/09/02 02:21:35;;;;;;;8.30;5.30;;;;;;;11.28;73.74;100614.27;112424;1200;94962;-85
2021/09/02 02:24:22;;;;;;;8.90;4.90;;;;;;;11.28;73.81;100617.75;112268;1202;137305;-86
2021/09/02 02:27:10;;;;;;;10.20;5.80;;;;;;;11.28;73.95;100613.39;112391;1202;104838;-86
2021/09/02 02:29:56;;;;;;;10.70;5.50;;;;;;;11.28;73.96;100609.56;112384;1201;107505;-85
2021/09/02 02:32:44;;;;;;;8.10;5.20;;;;;;;11.23;73.87;100610.74;112291;1201;138108;-83
2021/09/02 02:35:31;;;;;;;11.20;5.80;;;;;;;11.18;73.97;100609.86;112455;1201;94862;-83
2021/09/02 02:38:17;;;;;;;9.00;5.40;;;;;;;11.16;74.11;100617.77;112329;1201;137374;-85
2021/09/02 02:41:04;;;;;;;9.10;4.90;;;;;;;11.13;74.15;100615.76;112436;1203;104780;-86
2021/09/02 02:43:50;;;;;;;8.60;4.90;;;;;;;11.10;74.28;100614.98;112244;1202;138238;-86
2021/09/02 02:46:37;;;;;;;11.10;5.80;;;;;;;11.07;74.31;100610.02;112416;1208;96247;-83
2021/09/02 02:49:24;;;;;;;11.40;5.50;;;;;;;11.04;74.37;100605.55;112321;1201;137420;-83
2021/09/02 02:52:11;;;;;;;9.50;4.60;;;;;;;11.00;74.40;100599.25;112419;1208;109776;-83
2021/09/02 02:54:58;;;;;;;6.80;4.70;;;;;;;10.98;74.52;100592.89;112361;1203;137318;-84
2021/09/02 02:57:45;;;;;;;12.50;5.00;;;;;;;10.94;74.56;100590.52;112379;1203;105290;-84
2021/09/02 03:00:33;;;;;;;;;;;;;;;10.93;74.80;100586.39;112338;1207;137811;-85
2021/09/02 03:03:19;;;;;;;7.80;4.90;;;;;;;10.92;74.91;100585.20;112410;1201;96266;-89
2021/09/02 03:06:08;;;;;;;8.80;5.20;;;;;;;10.89;74.93;100577.63;112386;1203;109855;-83
2021/09/02 03:08:55;;;;;;;11.00;5.20;;;;;;;10.85;74.94;100579.67;112298;1207;138172;-84
2021/09/02 03:11:42;;;;;;;7.90;4.90;;;;;;;10.84;75.13;100579.84;112562;1200;107551;-83
2021/09/02 03:14:29;;;;;;;8.70;5.30;;;;;;;10.87;75.21;100576.99;112342;1208;137408;-85
2021/09/02 03:17:16;;;;;;;10.30;4.70;;;;;;;10.87;75.21;100581.14;112455;1201;96173;-85
2021/09/02 03:20:06;;;;;;;9.60;5.20;;;;;;;10.90;75.27;100580.04;112389;1202;138114;-85
2021/09/02 03:22:53;;;;;;;14.40;6.30;;;;;;;10.93;75.29;100582.38;112411;1202;106644;-84
2021/09/02 03:25:39;;;;;;;8.30;5.30;;;;;;;10.95;75.30;100585.65;112334;1201;137467;-86
2021/09/02 03:28:26;;;;;;;8.80;5.40;;;;;;;10.92;75.13;100590.08;112449;1200;96236;-85
2021/09/02 03:31:13;;;;;;;8.40;4.80;;;;;;;10.88;75.18;100593.31;112342;1202;138083;-83
2021/09/02 03:34:00;;;;;;;12.50;5.80;;;;;;;10.87;75.22;100595.08;112432;1202;109863;-83
2021/09/02 03:36:47;;;;;;;8.90;5.70;;;;;;;10.81;75.22;100599.42;112315;1200;137473;-86
2021/09/02 03:39:34;;;;;;;11.70;5.90;;;;;;;10.79;75.48;100604.55;112384;1200;107511;-85
2021/09/02 03:42:20;;;;;;;10.00;6.00;;;;;;;10.80;75.67;100609.19;112418;1200;97150;-84
2021/09/02 03:45:08;;;;;;;10.00;6.70;;;;;;;10.83;75.71;100610.84;112286;1200;138358;-85
2021/09/02 03:47:55;;;;;;;12.20;6.30;;;;;;;10.85;75.78;100608.34;112508;1202;108607;-86
2021/09/02 03:50:43;;;;;;;;;;;;;;;10.86;75.79;100610.05;112293;1208;137465;-84
2021/09/02 03:53:30;;;;;;;8.80;5.30;;;;;;;10.87;75.90;100611.08;112379;1203;107500;-84
2021/09/02 03:56:17;;;;;;;10.20;5.70;;;;;;;10.88;75.91;100613.13;112236;1202;137963;-83
2021/09/02 03:59:04;;;;;;;10.00;5.60;;;;;;;10.88;75.90;100615.05;112468;1200;96711;-86
2021/09/02 04:01:51;;;;;;;9.10;5.70;;;;;;;10.84;75.88;100617.77;112241;1201;138053;-84
2021/09/02 04:04:38;;;;;;;10.30;5.60;;;;;;;10.83;75.97;100616.24;112398;1203;107273;-83
2021/09/02 04:07:25;;;;;;;10.90;6.00;;;;;;;10.84;76.07;100617.42;112325;1207;137864;-84
2021/09/02 04:10:12;;;;;;;12.50;6.30;;;;;;;10.85;75.99;100615.68;112382;1202;96238;-85
2021/09/02 04:13:00;;;;;;;10.50;5.40;;;;;;;10.84;76.16;100616.21;112277;1201;137371;-88
2021/09/02 04:15:46;;;;;;;;;;;;;;;10.84;76.24;100621.79;112409;1202;109753;-83
2021/09/02 04:18:35;;;;;;;11.30;5.50;;;;;;;10.86;76.27;100619.64;112382;1202;107165;-83
2021/09/02 04:21:22;;;;;;;11.70;6.80;;;;;;;10.86;76.14;100617.01;112314;1202;136605;-85
2021/09/02 04:24:08;;;;;;;14.30;6.60;;;;;;;10.85;76.16;100610.97;112368;1201;97387;-84
2021/09/02 04:26:55;;;;;;;11.10;5.60;;;;;;;10.93;76.28;100611.45;112303;1202;137388;-86
2021/09/02 04:29:43;;;;;;;10.20;5.50;;;;;;;11.04;76.37;100609.58;112443;1208;109819;-85
2021/09/02 04:32:31;;;;;;;7.60;5.40;;;;;;;11.22;76.31;100611.15;112309;1202;136671;-85
2021/09/02 04:35:18;;;;;;;11.20;6.30;;;;;;;11.27;75.88;100608.90;112456;1202;107343;-84
2021/09/02 04:38:10;;;;;;;11.50;5.60;;;;;;;11.36;75.82;100611.95;112341;1200;136442;-85
2021/09/02 04:40:58;;;;;;;12.10;6.60;;;;;;;11.50;75.81;100607.17;112379;1201;96189;-86
2021/09/02 04:43:44;;;;;;;13.50;5.50;;;;;;;12.05;75.98;100605.98;112314;1207;138135;-86
2021/09/02 04:46:31;;;;;;;12.50;6.00;;;;;;;13.12;74.64;100597.59;112493;1208;106155;-89
2021/09/02 04:49:18;;;;;;;8.80;5.70;;;;;;;13.59;72.55;100602.08;112273;1209;136594;-84
2021/09/02 04:52:05;;;;;;;11.10;6.70;;;;;;;13.54;71.76;100598.29;112466;1201;96227;-83
2021/09/02 04:54:52;;;;;;;9.70;5.40;;;;;;;13.35;71.58;100597.09;112502;1202;96282;-83
2021/09/02 04:57:42;;;;;;;11.40;5.80;;;;;;;13.14;71.43;100595.06;112287;1208;136969;-83
2021/09/02 05:00:28;;;;;;;8.70;5.80;;;;;;;12.96;71.73;100592.56;112457;1201;106264;-85
2021/09/02 05:03:16;;;;;;;8.90;5.10;;;;;;;12.83;71.90;100589.38;112244;1202;137558;-87
2021/09/02 05:06:02;;;;;;;10.10;5.90;;;;;;;12.70;71.97;100588.08;112387;1201;96354;-85
2021/09/02 05:08:49;;;;;;;10.90;5.90;;;;;;;12.57;72.17;100593.25;112293;1202;137400;-85
2021/09/02 05:11:36;;;;;;;10.10;5.80;;;;;;;12.45;72.47;100598.04;112437;1202;107552;-83
2021/09/02 05:14:23;;;;;;;9.10;5.80;;;;;;;12.34;72.73;100601.02;112334;1202;137489;-84
2021/09/02 05:17:09;;;;;;;11.40;4.90;;;;;;;12.29;73.17;100603.13;112427;1202;106688;-85
2021/09/02 05:19:57;;;;;;;9.70;5.20;;;;;;;12.26;73.24;100600.77;112262;1208;136982;-95
2021/09/02 05:22:45;;;;;;;9.30;5.90;;;;;;;12.24;73.42;100597.88;112408;1202;96313;-86
2021/09/02 05:25:32;;;;;;;10.10;5.20;;;;;;;12.23;73.58;100597.41;112336;1208;137192;-83
2021/09/02 05:28:19;;;;;;;10.80;5.40;;;;;;;12.24;73.69;100597.02;112422;1202;106017;-82
2021/09/02 05:31:06;;;;;;;9.60;5.20;;;;;;;12.24;73.85;100601.21;112431;1203;106164;-83
2021/09/02 05:33:54;;;;;;;9.10;5.60;;;;;;;12.26;74.02;100601.30;112279;1202;137637;-85
2021/09/02 05:36:40;;;;;;;;;;;;;;;12.33;74.06;100598.61;112486;1199;96187;-84
2021/09/02 05:39:27;;;;;;;11.60;5.10;;;;;;;12.68;74.70;100596.34;112361;1200;123671;-84
2021/09/02 05:42:14;;;;;;;8.30;5.20;;;;;;;14.62;73.80;100589.26;112452;1202;106600;-84
2021/09/02 05:45:01;;;;;;;7.30;5.00;;;;;;;16.02;71.68;100582.62;112302;1202;137829;-84
2021/09/02 05:47:50;;;;;;;10.10;5.20;;;;;;;18.89;68.73;100566.20;112499;1203;96799;-85
2021/09/02 05:50:37;;;;;;;9.10;5.50;;;;;;;20.99;63.42;100564.05;112337;1200;137891;-83
2021/09/02 05:53:23;;;;;;;10.40;5.50;;;;;;;21.68;59.97;100561.41;112504;1200;108986;-83
2021/09/02 05:56:11;;;;;;;9.40;6.00;;;;;;;21.44;58.39;100566.52;112395;1203;137634;-86
2021/09/02 05:58:58;;;;;;;8.40;5.40;;;;;;;20.80;57.20;100568.74;112538;1200;106457;-84
2021/09/02 06:01:45;;;;;;;8.20;5.40;;;;;;;20.16;57.53;100576.09;112400;1199;138202;-83
2021/09/02 06:04:32;;;;;;;7.20;5.20;;;;;;;19.64;57.62;100575.65;112585;1207;96319;-83
2021/09/02 06:07:19;;;;;;;8.50;4.90;;;;;;;19.30;57.95;100573.58;112512;1203;111060;-84
2021/09/02 06:10:07;;;;;;;9.00;5.10;;;;;;;18.84;58.04;100575.58;112343;1208;136984;-83
2021/09/02 06:12:56;;;;;;;7.00;5.10;;;;;;;18.26;58.66;100577.25;112559;1207;106968;-83
2021/09/02 06:15:44;;;;;;;8.10;6.00;;;;;;;17.67;59.37;100581.50;112379;1200;137608;-85
2021/09/02 06:18:31;;;;;;;9.90;5.30;;;;;;;17.15;60.06;100577.38;112505;1199;93889;-83
2021/09/02 06:21:18;;;;;;;7.20;5.20;;;;;;;16.72;61.00;100575.79;112335;1200;138072;-84
2021/09/02 06:24:05;;;;;;;7.60;5.20;;;;;;;16.46;61.75;100576.95;112493;1208;106639;-81
2021/09/02 06:26:51;;;;;;;7.80;5.10;;;;;;;16.40;62.06;100571.83;112378;1200;137321;-82
2021/09/02 06:29:38;;;;;;;9.70;6.30;;;;;;;16.33;62.33;100571.98;112507;1198;96344;-85
2021/09/02 06:32:25;;;;;;;7.90;5.60;;;;;;;16.99;62.22;100575.23;112241;1202;137174;-85
2021/09/02 06:35:11;;;;;;;9.10;5.80;;;;;;;17.43;61.94;100575.46;112540;1200;108762;-83
2021/09/02 06:37:58;;;;;;;8.80;4.80;;;;;;;19.27;61.01;100572.67;112415;1197;137291;-83
2021/09/02 06:40:49;;;;;;;7.00;4.40;;;;;;;20.16;57.42;100571.31;112421;1203;107522;-85
2021/09/02 06:43:46;;;;;;;5.20;3.90;;;;;;;20.12;56.73;100574.08;112256;1202;137315;-83
2021/09/02 06:46:33;;;;;;;5.80;4.40;;;;;;;20.95;56.39;100580.96;112449;1208;96176;-84
2021/09/02 06:49:24;;;;;;;6.70;4.00;;;;;;;23.22;54.73;100566.58;112461;1203;108448;-83
2021/09/02 06:52:13;;;;;;;5.60;3.60;;;;;;;25.43;50.78;100548.49;112364;1200;137048;-84
2021/09/02 06:55:00;;;;;;;4.80;3.40;;;;;;;27.26;47.92;100542.19;112472;1201;107988;-84
2021/09/02 06:57:55;;;;;;;5.20;3.50;;;;;;;28.08;44.71;100548.91;112294;1202;137623;-95
2021/09/02 07:00:42;;;;;;;;;;;;;;;26.89;43.52;100550.57;112507;1200;96225;-85
2021/09/02 07:03:35;;;;;;;4.70;3.50;;;;;;;25.33;43.41;100551.52;112435;1208;123663;-85
2021/09/02 07:06:22;;;;;;;;;;;;;;;23.95;45.04;100548.48;112525;1208;105351;-85
2021/09/02 07:09:11;;;;;;;4.40;3.50;;;;;;;22.72;45.68;100543.08;112288;1205;123822;-84
2021/09/02 07:11:58;;;;;;;4.70;3.70;;;;;;;21.55;46.94;100558.11;112466;1203;94688;-85
2021/09/02 07:14:45;;;;;;;10.30;6.60;;;;;;;20.72;48.52;100573.59;112472;1200;137299;-83
2021/09/02 07:17:32;;;;;;;13.70;10.90;;;;;;;20.05;49.61;100584.44;112478;1200;108995;-87
2021/09/02 07:20:19;;;;;;;9.30;4.30;;;;;;;19.46;50.28;100585.80;112476;1208;137661;-84
2021/09/02 07:23:06;;;;;;;5.30;3.70;;;;;;;18.89;51.05;100594.99;112466;1201;105347;-83
2021/09/02 07:25:53;;;;;;;6.30;4.10;;;;;;;18.44;52.22;100599.79;112305;1200;137341;-83
2021/09/02 07:28:41;;;;;;;5.10;3.40;;;;;;;18.00;52.91;100609.92;112527;1208;96202;-84
2021/09/02 07:31:29;;;;;;;7.70;4.40;;;;;;;17.58;53.86;100612.41;112470;1200;110877;-92
2021/09/02 07:34:20;;;;;;;10.20;4.90;;;;;;;17.23;54.73;100616.81;112399;1207;137567;-83
2021/09/02 07:37:07;;;;;;;6.10;4.40;;;;;;;16.93;55.41;100619.31;112557;1200;105859;-82
2021/09/02 07:39:54;;;;;;;7.50;4.30;;;;;;;16.66;56.20;100622.98;112449;1200;137406;-84
2021/09/02 07:42:42;;;;;;;8.60;3.80;;;;;;;16.44;56.76;100639.87;112579;1203;96258;-85
2021/09/02 07:45:30;;;;;;;8.10;5.90;;;;;;;16.24;57.64;100647.50;112413;1202;136309;-85
2021/09/02 07:48:24;;;;;;;7.60;4.60;;;;;;;16.08;58.64;100652.52;112501;1209;105010;-84
2021/09/02 07:51:13;;;;;;;7.60;4.40;;;;;;;15.90;59.30;100648.30;112358;1203;137920;-85
2021/09/02 07:54:01;;;;;;;6.30;4.40;;;;;;;15.78;60.12;100645.05;112558;1200;95130;-84
2021/09/02 07:56:49;;;;;;;7.30;4.60;;;;;;;15.70;60.77;100645.56;112395;1200;137167;-85
2021/09/02 07:59:37;;;;;;;8.50;4.50;;;;;;;15.65;60.98;100641.06;112522;1207;108968;-86
2021/09/02 08:02:24;;;;;;;6.90;4.80;;;;;;;15.70;61.25;100635.92;112471;1200;136341;-84
2021/09/02 08:05:12;;;;;;;;;;;;;;;15.88;61.71;100635.59;112579;1208;108436;-84
2021/09/02 08:08:00;;;;;;;6.30;4.60;;;;;;;16.30;61.76;100634.24;112556;1200;96181;-84
2021/09/02 08:10:48;;;;;;;8.30;4.90;;;;;;;17.48;61.34;100624.39;112459;1202;96322;-87
2021/09/02 08:13:36;;;;;;;7.50;4.20;;;;;;;19.75;58.92;100623.27;112552;1200;109827;-85
2021/09/02 08:16:24;;;;;;;6.10;4.10;;;;;;;21.64;55.70;100620.29;112369;1201;137655;-84
2021/09/02 08:19:12;;;;;;;6.10;4.10;;;;;;;22.06;53.43;100618.29;112506;1200;107528;-84
2021/09/02 08:21:58;;;;;;;6.50;4.30;;;;;;;21.75;52.99;100622.48;112323;1209;137874;-83
2021/09/02 08:24:45;;;;;;;7.20;4.20;;;;;;;21.21;51.70;100616.96;112493;1202;96220;-85
2021/09/02 08:27:32;;;;;;;5.50;4.00;;;;;;;20.63;52.76;100621.73;112384;1200;137310;-84
2021/09/02 08:30:22;;;;;;;5.30;4.20;;;;;;;20.29;53.33;100624.35;112576;1208;106404;-84
2021/09/02 08:33:09;;;;;;;7.20;4.70;;;;;;;20.00;53.80;100629.06;112379;1202;137886;-83
2021/09/02 08:36:00;;;;;;;9.00;7.20;;;;;;;19.65;54.29;100628.54;112519;1208;96679;-87
2021/09/02 08:38:48;;;;;;;10.50;7.80;;;;;;;19.36;54.70;100627.54;112425;1202;137209;-85
2021/09/02 08:41:35;;;;;;;8.20;5.50;;;;;;;19.16;55.31;100626.80;112538;1200;109818;-83
2021/09/02 08:44:23;;;;;;;8.90;4.80;;;;;;;19.13;55.48;100628.56;112518;1202;106130;-83
2021/09/02 08:47:12;;;;;;;6.20;4.90;;;;;;;19.01;56.06;100634.63;112514;1202;106239;-82
2021/09/02 08:50:02;;;;;;;7.60;4.80;;;;;;;18.89;56.28;100631.85;112402;1203;96239;-84
2021/09/02 08:52:51;;;;;;;6.10;4.50;;;;;;;18.71;56.57;100636.79;112454;1200;136519;-83
2021/09/02 08:55:38;;;;;;;8.40;5.00;;;;;;;18.54;56.94;100637.05;112593;1200;109747;-86
2021/09/02 08:58:25;;;;;;;8.90;5.30;;;;;;;18.32;57.25;100644.85;112431;1200;137294;-84
2021/09/02 09:01:11;;;;;;;7.20;4.60;;;;;;;18.14;57.48;100647.13;112564;1200;106587;-84
2021/09/02 09:04:10;;;;;;;6.10;4.10;;;;;;;18.01;57.90;100650.52;112461;1207;137431;-83
2021/09/02 09:06:57;;;;;;;6.00;4.00;;;;;;;17.90;58.16;100657.96;112459;1200;96407;-85
2021/09/02 09:09:52;;;;;;;8.00;4.40;;;;;;;17.84;58.47;100661.54;112414;1200;137113;-85
2021/09/02 09:12:43;;;;;;;6.60;4.50;;;;;;;17.77;58.68;100664.16;112409;1203;106146;-86
2021/09/02 09:15:35;;;;;;;7.50;4.50;;;;;;;17.73;58.66;100667.73;112450;1199;137499;-85
2021/09/02 09:18:24;;;;;;;7.10;4.50;;;;;;;17.70;58.87;100672.30;112499;1199;96290;-84
2021/09/02 09:21:14;;;;;;;5.70;4.10;;;;;;;17.75;58.86;100672.00;112398;1200;138002;-84
2021/09/02 09:24:06;;;;;;;5.50;4.10;;;;;;;17.84;58.71;100673.13;112508;1206;109807;-83
2021/09/02 09:27:06;;;;;;;6.40;4.40;;;;;;;18.16;58.81;100674.26;112557;1207;106091;-85
2021/09/02 09:30:11;;;;;;;5.80;3.60;;;;;;;18.55;57.81;100675.93;112512;1200;106349;-83
2021/09/02 09:33:04;;;;;;;6.30;4.80;;;;;;;18.81;57.05;100675.83;112529;1200;96314;-84
2021/09/02 09:35:56;;;;;;;7.20;4.50;;;;;;;18.95;55.95;100674.64;112388;1208;137235;-83
2021/09/02 09:38:58;;;;;;;6.20;3.40;;;;;;;19.05;55.66;100674.71;112566;1207;109824;-82
2021/09/02 09:41:47;;;;;;;6.00;4.00;;;;;;;19.21;54.71;100670.36;112405;1208;137222;-84
2021/09/02 09:44:34;;;;;;;4.60;3.20;;;;;;;19.40;54.29;100672.02;112470;1208;108528;-84
2021/09/02 09:47:22;;;;;;;4.80;2.90;;;;;;;19.77;54.00;100669.92;112299;1208;137361;-84
2021/09/02 09:50:09;;;;;;;5.30;3.20;;;;;;;20.22;53.09;100670.50;112540;1208;96942;-82
2021/09/02 09:52:56;;;;;;;4.20;2.90;;;;;;;20.59;52.03;100671.11;112345;1208;137380;-83
2021/09/02 09:55:42;;;;;;;3.70;2.90;;;;;;;20.97;51.36;100668.66;112573;1208;106165;-81
2021/09/02 09:58:29;;;;;;;4.40;3.00;;;;;;;21.47;50.38;100669.81;112331;1208;137370;-82
2021/09/02 10:01:20;;;;;;;6.00;2.90;;;;;;;21.91;49.35;100670.55;112498;1201;96331;-84
2021/09/02 10:04:09;;;;;;;5.00;3.40;;;;;;;22.49;49.04;100675.15;112418;1200;137097;-83
2021/09/02 10:06:56;;;;;;;5.30;3.30;;;;;;;23.03;47.22;100670.50;112556;1200;110247;-84
2021/09/02 10:09:44;;;;;;;4.10;2.60;;;;;;;23.70;46.50;100675.81;112372;1200;137369;-84
2021/09/02 10:12:36;;;;;;;3.90;2.80;;;;;;;24.45;44.92;100675.18;112597;1208;107077;-84
2021/09/02 10:15:23;;;;;;;3.90;2.60;;;;;;;25.27;44.37;100665.77;112488;1201;96261;-82
2021/09/02 10:18:10;;;;;;;;;;;;;;;25.98;42.94;100663.56;112468;1200;136007;-82
2021/09/02 10:21:06;;;;;;;6.00;3.10;;;;;;;26.57;41.80;100660.30;112472;1208;109942;-84
2021/09/02 10:23:53;;;;;;;4.40;3.00;;;;;;;27.15;41.27;100664.02;112338;1208;137173;-82
2021/09/02 10:26:40;;;;;;;7.90;3.30;;;;;;;27.71;40.53;100671.99;112507;1206;106494;-83
2021/09/02 10:29:39;;;;;;;4.40;2.80;;;;;;;28.23;39.34;100664.48;112407;1208;137225;-85
2021/09/02 10:32:26;;;;;;;5.00;2.40;;;;;;;28.60;38.66;100661.16;112506;1201;96457;-83
2021/09/02 10:35:20;;;;;;;3.50;3.00;;;;;;;28.97;38.37;100654.67;112444;1200;136969;-82
2021/09/02 10:38:09;;;;;;;3.50;2.80;;;;;;;29.53;38.19;100654.96;112486;1207;105358;-82
2021/09/02 10:40:56;;;;;;;2.90;2.40;;;;;;;29.86;36.80;100656.07;112370;1204;137529;-82
2021/09/02 10:43:54;;;;;;;3.00;2.60;;;;;;;29.50;35.65;100659.69;112570;1200;96243;-82
2021/09/02 10:46:44;;;;;;;4.00;3.00;;;;;;;28.66;35.31;100667.75;112399;1200;137205;-81
2021/09/02 10:49:32;;;;;;;4.30;2.80;;;;;;;28.21;36.39;100665.83;112531;1208;109759;-82
2021/09/02 10:52:28;;;;;;;4.70;2.40;;;;;;;28.38;36.40;100665.23;112391;1201;137595;-81
2021/09/02 10:55:30;;;;;;;4.30;3.20;;;;;;;28.50;36.27;100666.52;112480;1204;106525;-81
2021/09/02 10:58:49;;;;;;;3.70;2.60;;;;;;;27.96;36.10;100668.84;112358;1206;137631;-82
2021/09/02 11:01:39;;;;;;;3.50;2.80;;;;;;;27.33;36.22;100668.52;112522;1201;96183;-81
2021/09/02 11:04:26;;;;;;;5.00;3.10;;;;;;;26.66;36.22;100667.52;112366;1201;137242;-81
2021/09/02 11:07:13;;;;;;;;;;;;;;;26.24;36.99;100669.25;112548;1206;106144;-80
2021/09/02 11:10:17;;;;;;;3.80;2.70;;;;;;;26.14;37.80;100666.42;112367;1207;123850;-80
2021/09/02 11:13:07;;;;;;;3.30;2.50;;;;;;;26.26;37.39;100663.41;112398;1200;96172;-82
2021/09/02 11:15:54;;;;;;;4.70;2.70;;;;;;;26.36;37.73;100667.65;112390;1206;137486;-82
2021/09/02 11:18:56;;;;;;;3.90;2.70;;;;;;;26.54;37.26;100665.45;112496;1202;108495;-82
2021/09/02 11:21:43;;;;;;;8.50;6.10;;;;;;;26.64;37.40;100667.03;112532;1206;105328;-81
2021/09/02 11:28:20;;;;;;;;;;;;;;;;;;;;;
2021/09/02 11:32:39;;;;;;;3.50;2.10;;;;;;;26.75;36.60;100669.91;112368;1209;96906;-77
2021/09/02 11:36:35;;;;;;;;;;;;;;;;;;;;;
2021/09/02 11:40:18;;;;;;;3.20;2.30;;;;;;;26.48;35.27;100659.17;112291;1203;107096;-77
2021/09/02 11:44:09;;;;;;;3.10;2.40;;;;;;;26.52;35.18;100665.45;112019;1214;108550;-77
2021/09/02 11:47:32;;;;;;;4.70;2.60;;;;;;;26.43;34.64;100671.07;111993;1213;137688;-76
2021/09/02 11:51:33;;;;;;;5.30;3.80;;;;;;;26.31;34.53;100667.33;112188;1213;96201;-76
2021/09/02 11:54:45;;;;;;;3.50;2.30;;;;;;;26.26;34.63;100671.51;112001;1214;137107;-77
2021/09/02 11:58:26;;;;;;;2.70;2.00;;;;;;;26.05;34.35;100673.82;112099;1209;107258;-77
2021/09/02 12:02:25;;;;;;;2.90;2.00;;;;;;;25.97;35.10;100671.38;112083;1205;137383;-77
2021/09/02 12:06:19;;;;;;;2.30;2.00;;;;;;;25.91;34.60;100674.00;111815;1217;138296;-77
2021/09/02 12:10:02;;;;;;;;;;;;;;;;;;;;;
2021/09/02 12:14:25;;;;;;;2.30;1.90;;;;;;;25.87;34.63;100660.41;111844;1211;137107;-77
2021/09/02 12:17:42;;;;;;;;;;;;;;;;;;;;;
2021/09/02 12:21:49;;;;;;;3.50;2.00;;;;;;;25.48;34.70;100667.17;111554;1217;108388;-78
2021/09/02 12:30:01;;;;;;;3.80;2.30;;;;;;;24.42;35.72;100679.56;111452;1216;96233;-77
2021/09/02 12:33:35;;;;;;;2.70;2.10;;;;;;;23.80;36.52;100684.52;111681;1214;109975;-77
2021/09/02 12:36:53;;;;;;;10.20;7.70;;;;;;;23.48;36.95;100682.95;111464;1214;137334;-76
2021/09/02 12:40:54;;;;;;;6.30;3.20;;;;;;;23.13;37.26;100691.14;111582;1214;107575;-77
2021/09/02 12:44:52;;;;;;;4.40;2.70;;;;;;;22.74;37.94;100689.89;111534;1215;137278;-76
2021/09/02 12:48:50;;;;;;;;;;;;;;;;;;;;;
2021/09/02 12:57:14;;;;;;;5.40;2.20;;;;;;;22.02;39.60;100684.77;111575;1219;137141;-78
2021/09/02 13:01:18;;;;;;;4.10;2.50;;;;;;;22.24;40.21;100682.33;111122;1214;137351;-77
2021/09/02 13:05:17;;;;;;;;;;;;;;;;;;;;;
2021/09/02 13:09:23;;;;;;;;;;;;;;;;;;;;;
2021/09/02 13:13:14;;;;;;;;;;;;;;;;;;;;;
2021/09/02 13:17:38;;;;;;;3.10;2.30;;;;;;;23.45;39.28;100685.61;111358;1221;107970;-76
2021/09/02 13:21:34;;;;;;;3.40;2.30;;;;;;;23.35;38.47;100684.65;111581;1213;137683;-75
2021/09/02 13:25:13;;;;;;;2.50;2.00;;;;;;;23.38;38.80;100680.67;111473;1221;137676;-77
2021/09/02 13:28:54;;;;;;;3.80;2.10;;;;;;;23.23;38.43;100679.97;111565;1212;96247;-77
2021/09/02 13:33:08;;;;;;;2.60;2.00;;;;;;;23.03;38.68;100683.14;111744;1216;137084;-76
2021/09/02 13:36:57;;;;;;;3.60;2.20;;;;;;;22.64;38.39;100683.17;111436;1214;107906;-77
2021/09/02 13:40:45;;;;;;;;;;;;;;;;;;;;;
2021/09/02 13:45:08;;;;;;;;;;;;;;;;;;;;;
2021/09/02 13:49:27;;;;;;;5.80;2.60;;;;;;;21.55;40.36;100694.54;111233;1223;96182;-76
2021/09/02 13:56:57;;;;;;;;;;;;;;;;;;;;;
2021/09/02 14:00:58;;;;;;;3.10;1.90;;;;;;;21.10;42.36;100684.36;110144;1225;106219;-76